Time;durP1;ratioP1;P1;durP2;ratioP2;P2;SDS_P1;SDS_P2;PMS_P1;PMS_P2;Temp;Humidity;BMP_temperature;BMP_pressure;BME280_temperature;BME280_humidity;BME280_pressure;Samples;Min_cycle;Max_cycle;Signal;HPM_P1;HPM_P2
2024/04/01 00:00:42;;;;;;;21.67;13.95;;;10.80;99.90;;;;;;5060152;28;20017;-72
2024/04/01 00:03:11;;;;;;;24.38;13.32;;;10.70;99.90;;;;;;5069313;28;20338;-72
2024/04/01 00:05:36;;;;;;;24.42;14.70;;;10.70;99.90;;;;;;5069517;28;20397;-72
2024/04/01 00:08:04;;;;;;;27.17;13.93;;;10.60;99.90;;;;;;5061768;28;20021;-72
2024/04/01 00:10:30;;;;;;;20.02;12.93;;;10.60;99.90;;;;;;5060001;28;20406;-72
2024/04/01 00:12:59;;;;;;;23.55;14.05;;;10.50;99.90;;;;;;5067585;28;20031;-72
2024/04/01 00:15:27;;;;;;;25.33;13.85;;;10.40;99.90;;;;;;5067902;28;20154;-72
2024/04/01 00:17:53;;;;;;;20.70;14.45;;;10.40;99.90;;;;;;5061267;28;20027;-72
2024/04/01 00:20:19;;;;;;;29.42;14.90;;;10.30;99.90;;;;;;5067855;28;20024;-72
2024/04/01 00:22:45;;;;;;;24.05;14.35;;;10.30;99.90;;;;;;5066851;28;20341;-71
2024/04/01 00:25:11;;;;;;;21.17;13.25;;;10.30;99.90;;;;;;5068065;28;20020;-72
2024/04/01 00:27:37;;;;;;;27.48;16.67;;;10.20;99.90;;;;;;5067765;28;20586;-72
2024/04/01 00:30:03;;;;;;;24.90;15.50;;;10.20;99.90;;;;;;5067647;28;20032;-72
2024/04/01 00:32:30;;;;;;;25.42;14.88;;;10.20;99.90;;;;;;5067543;28;20111;-72
2024/04/01 00:34:56;;;;;;;24.60;15.10;;;10.20;99.90;;;;;;5067294;28;20457;-72
2024/04/01 00:37:22;;;;;;;23.98;15.07;;;10.20;99.90;;;;;;5067688;28;20044;-72
2024/04/01 00:39:47;;;;;;;27.25;16.35;;;10.10;99.90;;;;;;5060605;28;20032;-72
2024/04/01 00:42:13;;;;;;;26.63;16.63;;;10.20;99.90;;;;;;5068877;28;20149;-72
2024/04/01 00:44:39;;;;;;;27.48;15.70;;;10.20;99.90;;;;;;5066950;28;20020;-72
2024/04/01 00:47:05;;;;;;;27.20;16.02;;;10.20;99.90;;;;;;5067692;28;20031;-72
2024/04/01 00:49:32;;;;;;;30.83;17.75;;;10.20;99.90;;;;;;5067301;28;20024;-72
2024/04/01 00:51:58;;;;;;;23.20;16.40;;;10.20;99.90;;;;;;5067593;28;20028;-72
2024/04/01 00:54:23;;;;;;;28.52;16.10;;;10.20;99.90;;;;;;5067081;28;20027;-72
2024/04/01 00:56:50;;;;;;;29.33;16.60;;;10.20;99.90;;;;;;5069020;28;20013;-72
2024/04/01 00:59:16;;;;;;;30.23;16.30;;;10.10;99.90;;;;;;5069202;28;20025;-72
2024/04/01 01:01:45;;;;;;;27.48;17.90;;;10.10;99.90;;;;;;5052749;28;20028;-72
2024/04/01 01:04:12;;;;;;;28.95;18.48;;;10.20;99.90;;;;;;5068551;28;20016;-72
2024/04/01 01:06:38;;;;;;;26.02;17.45;;;10.20;99.90;;;;;;5068730;28;20036;-72
2024/04/01 01:09:05;;;;;;;27.15;16.50;;;10.20;99.90;;;;;;5067505;28;20035;-72
2024/04/01 01:11:31;;;;;;;30.77;17.17;;;10.10;99.90;;;;;;5058860;28;20133;-72
2024/04/01 01:13:57;;;;;;;29.48;17.42;;;10.10;99.90;;;;;;5067540;28;20063;-72
2024/04/01 01:16:23;;;;;;;25.25;15.73;;;10.10;99.90;;;;;;5067369;28;20028;-71
2024/04/01 01:18:51;;;;;;;30.10;16.58;;;10.00;99.90;;;;;;5060514;28;20020;-72
2024/04/01 01:21:17;;;;;;;26.10;15.75;;;10.00;99.90;;;;;;5067382;28;20028;-72
2024/04/01 01:23:42;;;;;;;21.50;14.73;;;9.90;99.90;;;;;;5066704;28;20024;-71
2024/04/01 01:26:08;;;;;;;27.10;15.60;;;9.80;99.90;;;;;;5068604;28;20079;-72
2024/04/01 01:28:34;;;;;;;24.80;15.40;;;9.80;99.90;;;;;;5066982;28;20031;-72
2024/04/01 01:31:01;;;;;;;21.77;15.35;;;9.70;99.90;;;;;;5068599;28;20092;-72
2024/04/01 01:33:28;;;;;;;21.48;15.10;;;9.70;99.90;;;;;;5066645;28;20027;-72
2024/04/01 01:35:55;;;;;;;24.90;16.95;;;9.60;99.90;;;;;;5070902;28;20021;-72
2024/04/01 01:38:21;;;;;;;28.52;15.90;;;9.60;99.90;;;;;;5071141;28;20055;-72
2024/04/01 01:40:52;;;;;;;32.78;17.02;;;9.60;99.90;;;;;;5072235;28;20044;-72
2024/04/01 01:43:20;;;;;;;28.15;17.45;;;9.60;99.90;;;;;;5070700;28;20028;-72
2024/04/01 01:45:49;;;;;;;30.50;18.73;;;9.60;99.90;;;;;;5072284;28;20029;-71
2024/04/01 01:48:15;;;;;;;26.15;17.60;;;9.60;99.90;;;;;;5070917;28;20047;-72
2024/04/01 01:50:43;;;;;;;33.45;19.85;;;9.70;99.90;;;;;;5070701;28;20016;-72
2024/04/01 01:53:11;;;;;;;27.88;17.92;;;9.60;99.90;;;;;;5071778;28;20017;-72
2024/04/01 01:55:40;;;;;;;27.10;17.63;;;9.60;99.90;;;;;;5070798;28;20445;-72
2024/04/01 01:58:05;;;;;;;29.17;17.55;;;9.60;99.90;;;;;;5072190;28;20027;-72
2024/04/01 02:00:34;;;;;;;26.58;17.63;;;9.60;99.90;;;;;;5072036;28;20024;-71
2024/04/01 02:02:59;;;;;;;28.23;18.20;;;9.70;99.90;;;;;;5069458;28;20489;-72
2024/04/01 02:05:25;;;;;;;27.05;18.35;;;9.60;99.90;;;;;;5063682;28;20029;-72
2024/04/01 02:07:51;;;;;;;26.50;17.25;;;9.60;99.90;;;;;;5070556;28;20028;-72
2024/04/01 02:10:22;;;;;;;28.15;17.58;;;9.60;99.90;;;;;;5071929;28;20084;-72
2024/04/01 02:12:50;;;;;;;;;;;9.60;99.90;;;;;;5070540;28;20055;-71
2024/04/01 02:15:20;;;;;;;30.98;20.33;;;9.60;99.90;;;;;;5071850;28;19904;-72
2024/04/01 02:17:46;;;;;;;32.60;21.00;;;9.70;99.90;;;;;;5069445;28;20026;-71
2024/04/01 02:20:17;;;;;;;33.13;20.70;;;9.60;99.90;;;;;;5062275;28;20393;-72
2024/04/01 02:22:46;;;;;;;32.47;20.65;;;9.60;99.90;;;;;;5069938;28;20036;-72
2024/04/01 02:25:17;;;;;;;35.95;20.42;;;9.60;99.90;;;;;;5070251;28;20037;-72
2024/04/01 02:27:49;;;;;;;33.30;20.20;;;9.70;99.90;;;;;;5071678;28;20024;-72
2024/04/01 02:30:15;;;;;;;28.70;17.95;;;9.60;99.90;;;;;;5069968;28;20036;-72
2024/04/01 02:32:40;;;;;;;32.60;19.67;;;9.60;99.90;;;;;;5069799;28;20028;-72
2024/04/01 02:35:06;;;;;;;26.90;17.95;;;9.70;99.90;;;;;;5069688;28;20017;-72
2024/04/01 02:37:32;;;;;;;33.03;19.73;;;9.60;99.90;;;;;;5064987;28;20047;-72
2024/04/01 02:39:58;;;;;;;32.60;20.83;;;9.60;99.90;;;;;;5070005;28;20033;-72
2024/04/01 02:42:33;;;;;;;36.85;22.35;;;9.60;99.90;;;;;;5069671;28;20378;-72
2024/04/01 02:44:59;;;;;;;27.67;18.83;;;9.60;99.90;;;;;;5070649;28;20029;-72
2024/04/01 02:47:24;;;;;;;31.25;19.70;;;9.60;99.90;;;;;;5070460;28;20048;-72
2024/04/01 02:49:53;;;;;;;32.70;19.02;;;9.60;99.90;;;;;;5069685;28;20501;-72
2024/04/01 02:52:21;;;;;;;29.80;18.40;;;9.60;99.90;;;;;;5069675;28;20028;-73
2024/04/01 02:54:47;;;;;;;28.52;20.10;;;9.60;99.90;;;;;;5070729;28;20046;-72
2024/04/01 02:57:13;;;;;;;31.65;20.50;;;9.60;99.90;;;;;;5070947;28;20501;-72
2024/04/01 02:59:39;;;;;;;37.30;22.52;;;9.60;99.90;;;;;;5069443;28;20375;-72
2024/04/01 03:02:05;;;;;;;31.00;20.65;;;9.60;99.90;;;;;;5064192;28;20021;-72
2024/04/01 03:04:31;;;;;;;38.40;22.05;;;9.50;99.90;;;;;;5066046;28;20024;-72
2024/04/01 03:06:56;;;;;;;30.48;19.33;;;9.50;99.90;;;;;;5069507;28;20135;-73
2024/04/01 03:09:22;;;;;;;37.22;20.67;;;9.50;99.90;;;;;;5070776;28;20036;-73
2024/04/01 03:11:48;;;;;;;34.17;21.10;;;9.50;99.90;;;;;;5062404;28;20021;-73
2024/04/01 03:14:14;;;;;;;38.45;23.02;;;9.50;99.90;;;;;;5068911;28;20366;-73
2024/04/01 03:16:39;;;;;;;38.38;23.45;;;9.50;99.90;;;;;;5069401;28;20044;-73
2024/04/01 03:19:05;;;;;;;35.67;23.65;;;9.50;99.90;;;;;;5069209;28;20024;-73
2024/04/01 03:21:31;;;;;;;35.72;22.35;;;9.50;99.90;;;;;;5068974;28;20031;-73
2024/04/01 03:23:58;;;;;;;39.53;23.38;;;9.50;99.90;;;;;;5070196;28;20023;-73
2024/04/01 03:26:24;;;;;;;39.03;24.38;;;9.40;99.90;;;;;;5069218;28;20028;-73
2024/04/01 03:28:49;;;;;;;43.03;24.48;;;9.40;99.90;;;;;;5068750;28;20394;-73
2024/04/01 03:31:15;;;;;;;42.88;24.73;;;9.30;99.90;;;;;;5070343;28;20504;-73
2024/04/01 03:33:44;;;;;;;41.53;26.08;;;9.40;99.90;;;;;;5069766;28;20034;-73
2024/04/01 03:36:10;;;;;;;42.22;25.92;;;9.40;99.90;;;;;;5070523;28;20123;-73
2024/04/01 03:38:35;;;;;;;43.10;25.70;;;9.40;99.90;;;;;;5068583;28;20472;-73
2024/04/01 03:41:01;;;;;;;48.65;27.50;;;9.40;99.90;;;;;;5068893;28;20036;-72
2024/04/01 03:43:27;;;;;;;43.50;25.17;;;9.40;99.90;;;;;;5069754;28;20026;-73
2024/04/01 03:46:00;;;;;;;43.90;26.85;;;9.40;99.90;;;;;;5068470;28;20047;-73
2024/04/01 03:48:26;;;;;;;43.90;25.75;;;9.40;99.90;;;;;;5068459;28;20052;-73
2024/04/01 03:50:53;;;;;;;42.05;25.52;;;9.40;99.90;;;;;;5069991;28;20402;-73
2024/04/01 03:53:19;;;;;;;43.40;26.10;;;9.40;99.90;;;;;;5068164;28;20115;-73
2024/04/01 03:55:45;;;;;;;52.67;29.38;;;9.30;99.90;;;;;;5068362;28;20388;-73
2024/04/01 03:58:13;;;;;;;43.50;26.27;;;9.30;99.90;;;;;;5068506;28;20025;-73
2024/04/01 04:00:39;;;;;;;44.65;26.45;;;9.30;99.90;;;;;;5068286;28;20031;-73
2024/04/01 04:03:07;;;;;;;42.28;26.25;;;9.30;99.90;;;;;;5069371;28;20028;-73
2024/04/01 04:05:34;;;;;;;54.00;29.27;;;9.30;99.90;;;;;;5068402;28;20062;-73
2024/04/01 04:08:00;;;;;;;45.38;27.45;;;9.30;99.90;;;;;;5068289;28;20370;-73
2024/04/01 04:10:25;;;;;;;49.47;28.50;;;9.30;99.90;;;;;;5068332;28;20229;-73
2024/04/01 04:12:51;;;;;;;51.15;30.00;;;9.30;99.90;;;;;;5052492;28;20017;-73
2024/04/01 04:15:16;;;;;;;53.47;30.77;;;9.20;99.90;;;;;;5069643;28;20455;-73
2024/04/01 04:17:42;;;;;;;44.60;28.45;;;9.20;99.90;;;;;;5069767;28;20101;-73
2024/04/01 04:20:08;;;;;;;54.30;29.35;;;9.20;99.90;;;;;;5068208;28;20086;-73
2024/04/01 04:22:34;;;;;;;47.25;30.02;;;9.20;99.90;;;;;;5068003;28;20517;-73
2024/04/01 04:25:00;;;;;;;50.53;30.08;;;9.20;99.90;;;;;;5067692;28;20036;-73
2024/04/01 04:27:26;;;;;;;56.42;31.05;;;9.20;99.90;;;;;;5060989;28;20039;-73
2024/04/01 04:29:51;;;;;;;50.78;28.02;;;9.20;99.90;;;;;;5066759;28;20460;-73
2024/04/01 04:32:19;;;;;;;46.53;26.95;;;9.20;99.90;;;;;;5069248;28;20017;-73
2024/04/01 04:34:45;;;;;;;57.30;31.63;;;9.20;99.90;;;;;;5067599;28;20024;-73
2024/04/01 04:37:10;;;;;;;51.50;31.27;;;9.20;99.90;;;;;;5069304;28;20051;-73
2024/04/01 04:39:37;;;;;;;52.75;29.23;;;9.20;99.90;;;;;;5059565;28;20104;-73
2024/04/01 04:42:04;;;;;;;44.45;28.95;;;9.30;99.90;;;;;;5069134;28;20033;-73
2024/04/01 04:44:30;;;;;;;46.78;28.77;;;9.20;99.90;;;;;;5067326;28;20024;-73
2024/04/01 04:46:58;;;;;;;53.40;30.42;;;9.30;99.90;;;;;;5067939;28;20090;-73
2024/04/01 04:49:24;;;;;;;57.25;31.17;;;9.30;99.90;;;;;;5069059;28;20073;-73
2024/04/01 04:51:49;;;;;;;58.97;31.45;;;9.20;99.90;;;;;;5069095;28;20471;-73
2024/04/01 04:54:15;;;;;;;50.15;27.88;;;9.30;99.90;;;;;;5067255;28;20084;-73
2024/04/01 04:56:41;;;;;;;47.42;28.60;;;9.20;99.90;;;;;;5068879;28;20177;-73
2024/04/01 04:59:10;;;;;;;51.38;30.77;;;9.30;99.90;;;;;;5067428;28;20509;-73
2024/04/01 05:01:36;;;;;;;55.10;29.88;;;9.30;99.90;;;;;;5069092;28;20031;-73
2024/04/01 05:04:05;;;;;;;49.58;28.75;;;9.30;99.90;;;;;;5068529;28;20052;-73
2024/04/01 05:06:31;;;;;;;53.33;28.23;;;9.40;99.90;;;;;;5067453;28;20482;-73
2024/04/01 05:08:58;;;;;;;54.42;30.60;;;9.40;99.90;;;;;;5069290;28;20017;-73
2024/04/01 05:11:23;;;;;;;55.08;28.13;;;9.50;99.90;;;;;;5064716;28;20028;-73
2024/04/01 05:13:52;;;;;;;56.90;30.35;;;9.40;99.90;;;;;;5072322;28;20027;-73
2024/04/01 05:16:20;;;;;;;63.60;31.05;;;9.50;99.90;;;;;;5073264;28;20044;-73
2024/04/01 05:18:46;;;;;;;48.63;28.98;;;9.50;99.90;;;;;;5071622;28;20458;-73
2024/04/01 05:21:12;;;;;;;47.67;28.30;;;9.50;99.90;;;;;;5071433;28;20073;-73
2024/04/01 05:23:38;;;;;;;47.97;26.27;;;9.50;99.90;;;;;;5070730;28;20499;-73
2024/04/01 05:26:05;;;;;;;48.42;30.40;;;9.60;99.90;;;;;;5068866;28;20427;-72
2024/04/01 05:28:31;;;;;;;55.63;29.45;;;9.60;99.90;;;;;;5066803;28;20028;-73
2024/04/01 05:30:56;;;;;;;44.58;28.02;;;9.60;99.90;;;;;;5071176;28;20032;-73
2024/04/01 05:33:23;;;;;;;47.50;28.23;;;9.60;99.90;;;;;;5066198;28;20183;-73
2024/04/01 05:35:49;;;;;;;52.45;31.40;;;9.60;99.90;;;;;;5070562;28;20013;-73
2024/04/01 05:38:17;;;;;;;51.22;30.40;;;9.70;99.90;;;;;;5072512;28;20086;-73
2024/04/01 05:40:43;;;;;;;51.50;30.63;;;9.70;99.90;;;;;;5070085;28;20059;-73
2024/04/01 05:43:09;;;;;;;43.33;28.10;;;9.70;99.90;;;;;;5062771;28;20024;-73
2024/04/01 05:45:35;;;;;;;51.38;30.40;;;9.70;99.90;;;;;;5072368;28;20012;-73
2024/04/01 05:48:02;;;;;;;56.22;30.63;;;9.70;99.90;;;;;;5070682;28;20418;-73
2024/04/01 05:50:28;;;;;;;63.00;33.50;;;9.70;99.90;;;;;;5070772;28;20029;-73
2024/04/01 05:52:53;;;;;;;58.13;31.02;;;9.70;99.90;;;;;;5070419;28;20063;-73
2024/04/01 05:55:19;;;;;;;52.22;28.23;;;9.70;99.90;;;;;;5070656;28;20115;-73
2024/04/01 05:57:45;;;;;;;60.97;31.88;;;9.70;99.90;;;;;;5072117;28;20032;-73
2024/04/01 06:00:11;;;;;;;52.80;31.45;;;9.70;99.90;;;;;;5070861;28;20020;-73
2024/04/01 06:02:38;;;;;;;51.50;31.77;;;9.70;99.90;;;;;;5070580;28;20025;-73
2024/04/01 06:05:04;;;;;;;57.95;31.60;;;9.70;99.90;;;;;;5061984;28;20021;-73
2024/04/01 06:07:30;;;;;;;44.63;29.35;;;9.70;99.90;;;;;;5070796;28;20031;-73
2024/04/01 06:10:00;;;;;;;58.92;31.50;;;9.80;99.90;;;;;;5070247;28;20062;-73
2024/04/01 06:12:29;;;;;;;52.47;31.73;;;9.90;99.90;;;;;;5062101;28;20324;-73
2024/04/01 06:14:55;;;;;;;53.05;29.83;;;9.90;99.90;;;;;;5071270;28;20103;-73
2024/04/01 06:17:21;;;;;;;48.03;28.88;;;9.90;99.90;;;;;;5062471;28;20179;-73
2024/04/01 06:19:47;;;;;;;66.97;36.65;;;9.90;99.90;;;;;;5070276;28;20121;-73
2024/04/01 06:22:13;;;;;;;47.88;31.52;;;10.00;99.90;;;;;;5070308;28;20477;-73
2024/04/01 06:24:39;;;;;;;56.38;33.25;;;10.10;99.90;;;;;;5069883;28;20025;-73
2024/04/01 06:27:06;;;;;;;49.80;30.10;;;10.10;99.90;;;;;;5070140;28;20020;-73
2024/04/01 06:29:33;;;;;;;65.80;35.30;;;10.10;99.90;;;;;;5068375;28;20021;-71
2024/04/01 06:31:59;;;;;;;64.80;34.85;;;10.20;99.90;;;;;;5046784;28;20025;-74
2024/04/01 06:34:24;;;;;;;59.78;32.25;;;10.10;99.90;;;;;;5049893;28;20490;-73
2024/04/01 06:36:50;;;;;;;48.05;29.80;;;10.20;99.90;;;;;;5053429;28;20013;-71
2024/04/01 06:39:16;;;;;;;51.42;31.35;;;10.20;99.90;;;;;;5050750;28;20016;-71
2024/04/01 06:41:43;;;;;;;50.38;31.20;;;10.30;99.90;;;;;;5044159;28;20021;-71
2024/04/01 06:44:10;;;;;;;52.17;30.13;;;10.30;99.90;;;;;;5042433;28;20023;-71
2024/04/01 06:46:39;;;;;;;60.75;33.60;;;10.20;99.90;;;;;;5042951;28;20029;-71
2024/04/01 06:49:07;;;;;;;64.72;35.88;;;10.20;99.90;;;;;;5045449;28;20111;-72
2024/04/01 06:51:36;;;;;;;67.07;36.30;;;10.20;99.90;;;;;;5044732;28;20037;-72
2024/04/01 06:54:05;;;;;;;60.42;35.22;;;10.00;99.90;;;;;;5044268;28;20028;-72
2024/04/01 06:56:33;;;;;;;61.15;32.05;;;10.00;99.90;;;;;;5043468;28;20491;-73
2024/04/01 06:59:01;;;;;;;59.55;32.40;;;10.00;99.90;;;;;;5047128;28;20029;-72
2024/04/01 07:01:29;;;;;;;53.00;31.42;;;10.10;99.90;;;;;;5042510;28;20108;-72
2024/04/01 07:03:54;;;;;;;56.15;34.08;;;10.10;99.90;;;;;;5042869;28;20064;-72
2024/04/01 07:06:21;;;;;;;72.13;39.80;;;10.20;99.90;;;;;;5042969;28;20021;-73
2024/04/01 07:08:47;;;;;;;57.97;34.53;;;10.10;99.90;;;;;;5051318;28;20119;-72
2024/04/01 07:11:13;;;;;;;52.50;33.90;;;10.10;99.90;;;;;;5069224;28;20017;-72
2024/04/01 07:13:39;;;;;;;50.10;31.13;;;10.10;99.90;;;;;;5068872;28;20047;-72
2024/04/01 07:16:05;;;;;;;52.30;31.92;;;10.20;99.90;;;;;;5069336;28;20028;-72
2024/04/01 07:18:35;;;;;;;56.10;32.30;;;10.30;99.90;;;;;;5069063;28;20066;-72
2024/04/01 07:21:03;;;;;;;54.40;32.33;;;10.30;99.90;;;;;;5068400;28;20028;-73
2024/04/01 07:23:29;;;;;;;52.40;31.30;;;10.30;99.90;;;;;;5060058;28;20048;-73
2024/04/01 07:25:54;;;;;;;42.65;28.85;;;10.30;99.90;;;;;;5041246;28;20191;-73
2024/04/01 07:28:20;;;;;;;53.45;30.98;;;10.40;99.90;;;;;;5041406;28;20074;-73
2024/04/01 07:30:45;;;;;;;51.83;30.55;;;10.40;99.90;;;;;;5042784;28;20067;-72
2024/04/01 07:33:11;;;;;;;49.97;31.38;;;10.40;99.90;;;;;;5043313;28;20021;-72
2024/04/01 07:35:37;;;;;;;55.90;30.55;;;10.50;99.90;;;;;;5040876;28;20183;-73
2024/04/01 07:38:03;;;;;;;56.17;31.95;;;10.50;99.90;;;;;;5044267;28;20049;-73
2024/04/01 07:40:31;;;;;;;46.90;27.45;;;10.50;99.90;;;;;;5044155;28;20116;-72
2024/04/01 07:42:57;;;;;;;59.25;36.15;;;10.60;99.90;;;;;;5045362;28;20048;-73
2024/04/01 07:45:23;;;;;;;53.40;32.90;;;10.60;99.90;;;;;;5044157;28;20029;-73
2024/04/01 07:47:48;;;;;;;55.53;33.33;;;10.60;99.90;;;;;;5043895;28;20604;-72
2024/04/01 07:50:14;;;;;;;57.80;32.33;;;10.60;99.90;;;;;;5047234;28;20082;-73
2024/04/01 07:52:40;;;;;;;56.13;33.30;;;10.60;99.90;;;;;;5054044;28;20017;-73
2024/04/01 07:55:06;;;;;;;47.80;29.10;;;10.70;99.90;;;;;;5069120;28;20099;-73
2024/04/01 07:57:32;;;;;;;50.08;30.13;;;10.70;99.90;;;;;;5068379;28;20017;-73
2024/04/01 07:59:58;;;;;;;58.85;34.30;;;10.80;99.90;;;;;;5069529;28;20124;-73
2024/04/01 08:02:25;;;;;;;56.67;33.30;;;10.90;99.90;;;;;;5068081;28;20031;-73
2024/04/01 08:04:54;;;;;;;49.10;30.92;;;10.90;99.90;;;;;;5067655;28;20509;-73
2024/04/01 08:07:20;;;;;;;64.05;34.35;;;11.00;99.90;;;;;;5068118;28;20426;-73
2024/04/01 08:09:46;;;;;;;49.25;30.55;;;10.90;99.90;;;;;;5068059;28;20059;-73
2024/04/01 08:12:12;;;;;;;45.42;28.65;;;11.00;99.90;;;;;;5060323;28;20017;-73
2024/04/01 08:14:37;;;;;;;51.88;29.17;;;11.00;99.90;;;;;;5061841;28;20024;-73
2024/04/01 08:17:03;;;;;;;54.80;30.50;;;11.00;99.90;;;;;;5054809;28;20108;-73
2024/04/01 08:19:29;;;;;;;59.10;32.63;;;11.00;99.90;;;;;;5044760;28;20112;-73
2024/04/01 08:21:55;;;;;;;46.42;29.17;;;11.00;99.90;;;;;;5046252;28;20040;-73
2024/04/01 08:24:24;;;;;;;53.85;31.45;;;11.00;99.90;;;;;;5048294;28;20017;-72
2024/04/01 08:26:52;;;;;;;49.15;32.28;;;11.10;99.90;;;;;;5048304;28;20025;-73
2024/04/01 08:29:18;;;;;;;57.53;33.67;;;11.10;99.90;;;;;;5043426;28;20059;-73
2024/04/01 08:31:44;;;;;;;44.25;28.67;;;11.10;99.90;;;;;;5044727;28;20498;-73
2024/04/01 08:34:13;;;;;;;48.35;29.55;;;11.20;99.90;;;;;;5041859;28;20023;-73
2024/04/01 08:36:41;;;;;;;58.42;31.30;;;11.30;99.90;;;;;;5045358;28;20036;-73
2024/04/01 08:39:08;;;;;;;47.33;32.17;;;11.30;99.90;;;;;;5046533;28;20021;-73
2024/04/01 08:41:40;;;;;;;54.63;33.03;;;11.50;99.90;;;;;;5047997;28;20016;-73
2024/04/01 08:44:18;;;;;;;47.83;29.02;;;11.50;99.90;;;;;;5066772;28;20025;-73
2024/04/01 08:46:50;;;;;;;51.03;28.98;;;11.60;99.90;;;;;;5068092;28;20504;-74
2024/04/01 08:49:28;;;;;;;43.47;26.92;;;11.60;99.90;;;;;;5067874;28;20535;-73
2024/04/01 08:51:56;;;;;;;55.95;32.55;;;11.70;99.90;;;;;;5048910;28;20031;-73
2024/04/01 08:54:22;;;;;;;44.53;29.88;;;11.70;99.90;;;;;;5053471;28;20028;-73
2024/04/01 08:56:47;;;;;;;41.67;25.73;;;11.80;99.90;;;;;;5037144;28;20383;-73
2024/04/01 08:59:13;;;;;;;41.90;26.80;;;11.80;99.90;;;;;;5044734;28;20033;-72
2024/04/01 09:01:39;;;;;;;43.05;28.33;;;11.80;99.90;;;;;;5040257;28;20025;-73
2024/04/01 09:04:05;;;;;;;40.33;25.23;;;11.90;99.90;;;;;;5044031;28;20481;-73
2024/04/01 09:06:33;;;;;;;43.15;26.65;;;11.90;99.90;;;;;;5044936;28;20091;-72
2024/04/01 09:08:59;;;;;;;38.13;24.17;;;11.90;99.90;;;;;;5042924;28;20100;-73
2024/04/01 09:11:27;;;;;;;47.42;27.40;;;12.00;99.90;;;;;;5062180;28;20103;-73
2024/04/01 09:13:56;;;;;;;38.25;24.17;;;12.00;99.90;;;;;;5065599;28;20029;-73
2024/04/01 09:16:27;;;;;;;39.78;24.60;;;12.00;99.90;;;;;;5046181;28;20025;-73
2024/04/01 09:18:53;;;;;;;44.45;26.42;;;12.00;99.90;;;;;;5058522;28;20032;-73
2024/04/01 09:21:21;;;;;;;45.85;26.55;;;12.00;99.90;;;;;;5067258;28;20039;-73
2024/04/01 09:23:47;;;;;;;43.85;26.88;;;12.00;99.90;;;;;;5064262;28;20053;-73
2024/04/01 09:26:16;;;;;;;38.88;25.13;;;12.10;99.90;;;;;;5046211;28;20525;-73
2024/04/01 09:28:42;;;;;;;37.15;24.13;;;12.00;99.90;;;;;;5063708;28;20504;-73
2024/04/01 09:31:11;;;;;;;35.85;23.67;;;12.10;99.90;;;;;;5054471;28;20043;-73
2024/04/01 09:33:40;;;;;;;41.80;23.58;;;12.10;99.90;;;;;;5058087;28;20481;-73
2024/04/01 09:36:07;;;;;;;58.28;31.58;;;12.20;99.90;;;;;;5064723;28;20032;-72
2024/04/01 09:38:36;;;;;;;51.58;30.33;;;12.10;99.90;;;;;;5065418;28;20100;-73
2024/04/01 09:41:02;;;;;;;46.97;29.40;;;12.00;99.90;;;;;;5056184;28;20051;-73
2024/04/01 09:43:29;;;;;;;41.38;28.30;;;12.00;99.90;;;;;;5068457;28;20028;-73
2024/04/01 09:45:56;;;;;;;52.83;32.10;;;12.00;99.90;;;;;;5067263;28;20039;-73
2024/04/01 09:48:26;;;;;;;50.38;32.45;;;12.00;99.90;;;;;;5066835;28;20028;-73
2024/04/01 09:50:56;;;;;;;52.60;29.92;;;11.90;99.90;;;;;;5053106;28;20025;-74
2024/04/01 09:53:27;;;;;;;47.97;29.05;;;11.90;99.90;;;;;;5063969;28;20108;-74
2024/04/01 09:56:04;;;;;;;46.03;28.45;;;11.90;99.90;;;;;;5061874;28;20142;-73
2024/04/01 09:58:48;;;;;;;46.83;27.40;;;12.00;99.90;;;;;;5056405;28;20108;-73
2024/04/01 10:01:31;;;;;;;47.92;30.05;;;12.00;99.90;;;;;;5061852;28;20047;-74
2024/04/01 10:04:25;;;;;;;59.20;33.47;;;12.00;99.90;;;;;;5071764;28;20017;-74
2024/04/01 10:07:02;;;;;;;55.58;31.95;;;12.00;99.90;;;;;;5063255;28;20029;-74
2024/04/01 10:09:34;;;;;;;51.38;30.27;;;11.90;99.90;;;;;;5054910;28;20085;-74
2024/04/01 10:13:31;;;;;;;51.63;29.58;;;11.90;99.90;;;;;;5069982;28;20028;-74
2024/04/01 10:16:02;;;;;;;48.47;28.75;;;11.90;99.90;;;;;;4979346;28;20089;-74
2024/04/01 10:19:06;;;;;;;52.30;29.73;;;11.90;99.90;;;;;;5057839;28;20108;-74
2024/04/01 10:21:59;;;;;;;57.08;31.73;;;12.00;99.90;;;;;;5050100;28;20021;-72
2024/04/01 10:24:40;;;;;;;52.33;29.83;;;12.00;99.90;;;;;;5064980;28;20020;-73
2024/04/01 10:27:52;;;;;;;51.88;30.95;;;12.00;99.90;;;;;;5072257;28;20016;-73
2024/04/01 10:30:40;;;;;;;47.28;29.38;;;12.00;99.90;;;;;;5060246;28;20040;-73
2024/04/01 10:33:24;;;;;;;54.67;31.73;;;12.20;99.90;;;;;;5057329;28;20028;-79
2024/04/01 10:36:27;;;;;;;57.05;31.02;;;12.30;99.90;;;;;;5070023;28;20025;-79
2024/04/01 10:39:33;;;;;;;58.78;32.10;;;12.30;99.90;;;;;;5057305;28;20026;-79
2024/04/01 10:42:19;;;;;;;47.17;29.48;;;12.40;99.90;;;;;;5055464;28;20112;-80
2024/04/01 10:45:07;;;;;;;51.50;28.70;;;12.40;99.90;;;;;;5047118;28;20426;-79
2024/04/01 10:48:15;;;;;;;56.33;30.63;;;12.50;99.90;;;;;;5060319;28;20086;-79
2024/04/01 10:50:44;;;;;;;47.67;29.30;;;12.60;99.90;;;;;;5015899;28;20033;-79
2024/04/01 10:53:12;;;;;;;41.65;27.88;;;12.70;99.90;;;;;;5044915;28;20055;-79
2024/04/01 10:56:34;;;;;;;52.60;30.58;;;12.80;99.90;;;;;;5054533;28;20037;-80
2024/04/01 10:59:01;;;;;;;48.53;29.52;;;12.90;99.90;;;;;;4989983;28;20030;-79
2024/04/01 11:01:43;;;;;;;55.90;29.52;;;12.90;99.90;;;;;;5064705;28;20040;-79
2024/04/01 11:04:34;;;;;;;56.80;32.35;;;12.80;99.90;;;;;;5070373;28;20024;-79
2024/04/01 11:07:38;;;;;;;49.92;28.80;;;12.70;99.90;;;;;;5076439;28;20030;-80
2024/04/01 11:10:22;;;;;;;44.15;29.25;;;12.70;99.90;;;;;;5038054;28;20116;-79
2024/04/01 11:13:04;;;;;;;52.67;30.48;;;12.70;99.90;;;;;;5063595;28;20454;-79
2024/04/01 11:15:31;;;;;;;56.95;34.30;;;12.60;99.90;;;;;;5055443;28;20115;-79
2024/04/01 11:18:16;;;;;;;52.13;30.35;;;12.40;99.90;;;;;;5054798;28;20024;-79
2024/04/01 11:20:59;;;;;;;53.85;30.92;;;12.40;99.90;;;;;;5069839;28;20025;-80
2024/04/01 11:23:53;;;;;;;58.45;33.75;;;12.40;99.90;;;;;;5069739;28;20485;-80
2024/04/01 11:26:57;;;;;;;88.40;38.40;;;12.30;99.90;;;;;;5072764;28;20082;-79
2024/04/01 11:29:26;;;;;;;73.72;38.05;;;12.20;99.90;;;;;;5056060;28;20229;-80
2024/04/01 11:31:59;;;;;;;58.65;37.13;;;12.00;99.90;;;;;;5056618;28;20026;-80
2024/04/01 11:34:50;;;;;;;52.20;31.38;;;12.00;99.90;;;;;;5061201;28;20024;-80
2024/04/01 11:37:38;;;;;;;70.30;38.35;;;12.00;99.90;;;;;;5061433;28;20103;-80
2024/04/01 11:40:08;;;;;;;72.20;36.50;;;12.00;99.90;;;;;;5057996;28;20578;-80
2024/04/01 11:42:37;;;;;;;65.90;34.65;;;12.10;99.90;;;;;;5069871;28;20024;-80
2024/04/01 11:45:07;;;;;;;73.53;37.92;;;12.00;99.90;;;;;;5069541;28;20029;-80
2024/04/01 11:47:38;;;;;;;56.80;33.47;;;12.10;99.90;;;;;;5073023;28;20035;-79
2024/04/01 11:50:19;;;;;;;65.00;36.67;;;12.00;99.90;;;;;;5066380;28;20058;-80
2024/04/01 11:53:00;;;;;;;63.40;36.83;;;12.00;99.90;;;;;;5044654;28;20017;-79
2024/04/01 11:55:26;;;;;;;57.40;36.22;;;12.00;99.90;;;;;;5064541;28;20036;-80
2024/04/01 11:58:18;;;;;;;72.85;44.10;;;12.00;99.90;;;;;;5071296;28;20019;-80
2024/04/01 12:01:01;;;;;;;61.20;39.47;;;12.00;99.90;;;;;;5076363;28;20024;-79
2024/04/01 12:03:49;;;;;;;66.95;37.30;;;12.00;99.90;;;;;;5075997;28;20036;-80
2024/04/01 12:06:18;;;;;;;61.08;39.08;;;11.90;99.90;;;;;;5073359;28;20052;-81
2024/04/01 12:08:44;;;;;;;65.35;39.45;;;11.90;99.90;;;;;;5071736;28;20085;-80
2024/04/01 12:11:11;;;;;;;62.55;39.00;;;11.90;99.90;;;;;;5058949;28;20541;-80
2024/04/01 12:13:40;;;;;;;66.13;40.25;;;11.80;99.90;;;;;;5072561;28;20018;-79
2024/04/01 12:16:08;;;;;;;74.82;45.83;;;11.80;99.90;;;;;;5064963;28;20125;-80
2024/04/01 12:18:44;;;;;;;73.50;42.55;;;11.80;99.90;;;;;;5071031;28;20432;-80
2024/04/01 12:21:11;;;;;;;77.65;45.28;;;11.70;99.90;;;;;;5062450;28;20469;-79
2024/04/01 12:23:39;;;;;;;70.93;42.30;;;11.60;99.90;;;;;;5074873;28;20021;-79
2024/04/01 12:26:09;;;;;;;63.67;40.85;;;11.60;99.90;;;;;;5074135;28;20370;-80
2024/04/01 12:28:38;;;;;;;82.57;46.40;;;11.50;99.90;;;;;;5068809;28;20082;-80
2024/04/01 12:31:04;;;;;;;67.38;41.15;;;11.50;99.90;;;;;;5069539;28;20033;-80
2024/04/01 12:33:39;;;;;;;64.22;39.40;;;11.40;99.90;;;;;;5074907;28;20023;-80
2024/04/01 12:36:10;;;;;;;63.60;40.85;;;11.50;99.90;;;;;;5077360;28;20024;-80
2024/04/01 12:38:40;;;;;;;69.13;41.70;;;11.40;99.90;;;;;;5078879;28;20363;-80
2024/04/01 12:41:07;;;;;;;75.60;41.63;;;11.40;99.90;;;;;;5080005;28;20016;-80
2024/04/01 12:43:35;;;;;;;69.35;42.60;;;11.40;99.90;;;;;;5076811;28;20139;-81